createdAt,value
2017-11-24T00:01:15.039Z,16.93
2017-11-24T00:03:43.402Z,16.80
2017-11-24T00:06:12.480Z,21.00
2017-11-24T00:08:40.821Z,17.20
2017-11-24T00:11:09.147Z,19.20
2017-11-24T00:13:38.268Z,19.40
2017-11-24T00:16:06.656Z,12.70
2017-11-24T00:18:34.980Z,16.23
2017-11-24T00:21:03.307Z,16.40
2017-11-24T00:23:31.624Z,13.20
2017-11-24T00:25:59.981Z,12.57
2017-11-24T00:28:28.299Z,12.87
2017-11-24T00:30:57.429Z,15.03
2017-11-24T00:33:25.748Z,13.30
2017-11-24T00:35:54.051Z,14.73
2017-11-24T00:38:22.403Z,13.13
2017-11-24T00:40:50.709Z,13.00
2017-11-24T00:43:19.818Z,11.60
2017-11-24T00:45:48.877Z,13.03
2017-11-24T00:48:18.009Z,14.13
2017-11-24T00:50:46.315Z,11.50
2017-11-24T00:53:14.648Z,14.90
2017-11-24T00:55:43.737Z,16.03
2017-11-24T00:58:12.098Z,15.23
2017-11-24T01:00:40.407Z,15.40
2017-11-24T01:03:09.468Z,14.00
2017-11-24T01:05:37.794Z,17.47
2017-11-24T01:08:06.113Z,13.80
2017-11-24T01:10:35.240Z,17.10
2017-11-24T01:13:04.318Z,15.57
2017-11-24T01:15:32.638Z,13.70
2017-11-24T01:18:01.704Z,14.63
2017-11-24T01:20:30.035Z,13.57
2017-11-24T01:22:58.348Z,10.70
2017-11-24T01:25:26.674Z,11.57
2017-11-24T01:27:55.014Z,20.13
2017-11-24T01:30:24.087Z,11.27
2017-11-24T01:32:52.408Z,9.50
2017-11-24T01:35:20.715Z,10.97
2017-11-24T01:37:49.044Z,10.20
2017-11-24T01:40:17.358Z,9.90
2017-11-24T01:42:45.724Z,9.90
2017-11-24T01:45:14.041Z,12.10
2017-11-24T01:47:43.140Z,14.93
2017-11-24T01:50:11.473Z,9.97
2017-11-24T01:52:39.789Z,12.40
2017-11-24T01:55:09.239Z,10.80
2017-11-24T01:57:37.575Z,10.23
2017-11-24T02:00:05.913Z,9.97
2017-11-24T02:02:34.253Z,11.13
2017-11-24T02:05:04.127Z,11.43
2017-11-24T02:07:33.239Z,10.43
2017-11-24T02:10:02.334Z,8.50
2017-11-24T02:12:30.706Z,11.80
2017-11-24T02:14:59.805Z,8.40
2017-11-24T02:17:28.139Z,10.27
2017-11-24T02:19:56.448Z,10.20
2017-11-24T02:22:24.788Z,17.60
2017-11-24T02:24:53.154Z,12.07
2017-11-24T02:27:21.908Z,10.50
2017-11-24T02:29:50.215Z,9.60
2017-11-24T02:32:19.316Z,14.63
2017-11-24T02:34:47.628Z,10.30
2017-11-24T02:37:15.927Z,10.73
2017-11-24T02:39:44.272Z,10.93
2017-11-24T02:42:12.588Z,9.00
2017-11-24T02:44:40.915Z,14.00
2017-11-24T02:47:10.225Z,13.27
2017-11-24T02:49:39.160Z,13.37
2017-11-24T02:52:08.239Z,15.87
2017-11-24T02:54:38.446Z,17.20
2017-11-24T02:57:06.799Z,13.20
2017-11-24T02:59:35.166Z,14.90
2017-11-24T03:02:03.468Z,13.00
2017-11-24T03:04:31.844Z,16.47
2017-11-24T03:07:00.153Z,17.70
2017-11-24T03:09:30.096Z,28.67
2017-11-24T03:11:58.419Z,13.90
2017-11-24T03:14:26.745Z,20.60
2017-11-24T03:16:55.119Z,13.97
2017-11-24T03:19:23.431Z,21.47
2017-11-24T03:21:51.761Z,13.30
2017-11-24T03:24:20.865Z,11.57
2017-11-24T03:26:49.949Z,14.07
2017-11-24T03:29:18.448Z,11.77
2017-11-24T03:31:46.785Z,10.70
2017-11-24T03:34:15.913Z,13.83
2017-11-24T03:36:44.991Z,13.37
2017-11-24T03:39:17.862Z,14.20
2017-11-24T03:41:46.175Z,15.20
2017-11-24T03:44:14.497Z,14.03
2017-11-24T03:46:42.852Z,13.67
2017-11-24T03:49:11.144Z,13.70
2017-11-24T03:51:39.456Z,13.10
2017-11-24T03:54:07.802Z,11.03
2017-11-24T03:56:36.099Z,12.40
2017-11-24T03:59:04.409Z,16.17
2017-11-24T04:01:33.512Z,17.60
2017-11-24T04:04:01.872Z,16.23
2017-11-24T04:06:30.156Z,6.73
2017-11-24T04:08:59.219Z,7.17
2017-11-24T04:11:27.549Z,7.10
2017-11-24T04:13:55.840Z,6.80
2017-11-24T04:16:24.133Z,8.33
2017-11-24T04:18:52.486Z,7.90
2017-11-24T04:21:20.826Z,6.60
2017-11-24T04:23:49.920Z,8.17
2017-11-24T04:26:18.219Z,10.60
2017-11-24T04:28:46.544Z,9.37
2017-11-24T04:31:14.832Z,5.53
2017-11-24T04:33:43.159Z,6.00
2017-11-24T04:36:11.495Z,11.37
2017-11-24T04:38:39.820Z,13.50
2017-11-24T04:41:08.130Z,12.97
2017-11-24T04:43:37.248Z,7.27
2017-11-24T04:46:05.588Z,13.40
2017-11-24T04:48:33.867Z,10.53
2017-11-24T04:51:02.206Z,10.70
2017-11-24T04:53:30.500Z,7.47
2017-11-24T04:55:58.874Z,16.60
2017-11-24T04:58:27.189Z,16.17
2017-11-24T05:00:55.497Z,22.43
2017-11-24T05:03:23.826Z,19.30
2017-11-24T05:05:52.150Z,21.30
2017-11-24T05:08:21.324Z,19.90
2017-11-24T05:10:50.415Z,35.10
2017-11-24T05:13:18.756Z,34.23
2017-11-24T05:15:47.059Z,36.60
2017-11-24T05:18:15.371Z,24.60
2017-11-24T05:20:44.464Z,19.53
2017-11-24T05:23:13.572Z,23.57
2017-11-24T05:25:41.896Z,22.53
2017-11-24T05:28:10.245Z,24.83
2017-11-24T05:30:38.573Z,28.67
2017-11-24T05:33:07.659Z,26.90
2017-11-24T05:35:36.792Z,27.67
2017-11-24T05:38:05.123Z,26.20
2017-11-24T05:40:33.475Z,33.30
2017-11-24T05:43:01.790Z,41.67
2017-11-24T05:45:30.152Z,25.27
2017-11-24T05:47:58.475Z,22.23
2017-11-24T05:50:26.819Z,18.73
2017-11-24T05:52:55.146Z,22.30
2017-11-24T05:55:23.503Z,31.60
2017-11-24T05:57:51.840Z,27.37
2017-11-24T06:00:20.972Z,27.93
2017-11-24T06:02:50.086Z,19.23
2017-11-24T06:05:18.430Z,21.97
2017-11-24T06:07:46.694Z,18.60
2017-11-24T06:10:15.049Z,18.60
2017-11-24T06:12:43.373Z,18.17
2017-11-24T06:15:12.448Z,21.37
2017-11-24T06:17:40.794Z,24.63
2017-11-24T06:20:09.144Z,28.00
2017-11-24T06:22:37.507Z,27.83
2017-11-24T06:25:06.577Z,21.43
2017-11-24T06:27:34.920Z,21.43
2017-11-24T06:30:03.273Z,20.30
2017-11-24T06:32:31.597Z,20.77
2017-11-24T06:34:59.939Z,22.30
2017-11-24T06:37:28.644Z,19.90
2017-11-24T06:39:57.022Z,19.53
2017-11-24T06:42:25.340Z,18.50
2017-11-24T06:44:54.434Z,23.07
2017-11-24T06:47:23.534Z,22.33
2017-11-24T06:49:51.869Z,19.53
2017-11-24T06:52:20.220Z,16.37
2017-11-24T06:54:48.528Z,22.53
2017-11-24T06:57:17.633Z,22.03
2017-11-24T06:59:46.764Z,21.10
2017-11-24T07:02:15.098Z,21.07
2017-11-24T07:04:43.498Z,24.97
2017-11-24T07:07:11.859Z,14.20
2017-11-24T07:09:40.204Z,17.47
2017-11-24T07:12:08.539Z,10.53
2017-11-24T07:14:37.627Z,19.17
2017-11-24T07:17:06.715Z,17.27
2017-11-24T07:19:35.686Z,13.23
2017-11-24T07:22:04.077Z,17.77
2017-11-24T07:24:32.399Z,21.87
2017-11-24T07:27:00.720Z,19.53
2017-11-24T07:29:29.044Z,18.90
2017-11-24T07:31:57.344Z,22.20
2017-11-24T07:34:25.748Z,19.80
2017-11-24T07:36:54.043Z,18.93
2017-11-24T07:39:22.371Z,20.77
2017-11-24T07:41:50.675Z,25.03
2017-11-24T07:44:19.017Z,24.07
2017-11-24T07:46:47.328Z,23.63
2017-11-24T07:49:15.619Z,26.27
2017-11-24T07:51:44.956Z,22.67
2017-11-24T07:54:14.040Z,26.70
2017-11-24T07:56:43.132Z,25.10
2017-11-24T07:59:12.243Z,21.97
2017-11-24T08:01:40.591Z,23.53
2017-11-24T08:04:09.672Z,28.40
2017-11-24T08:06:38.020Z,22.50
2017-11-24T08:09:06.376Z,25.83
2017-11-24T08:11:34.838Z,20.70
2017-11-24T08:14:03.180Z,17.67
2017-11-24T08:16:31.496Z,21.10
2017-11-24T08:18:59.935Z,19.50
2017-11-24T08:21:29.155Z,17.70
2017-11-24T08:23:57.694Z,18.10
2017-11-24T08:26:26.025Z,21.13
2017-11-24T08:28:55.109Z,22.77
2017-11-24T08:31:24.652Z,23.80
2017-11-24T08:33:52.974Z,24.37
2017-11-24T08:36:21.309Z,23.07
2017-11-24T08:38:49.706Z,28.40
2017-11-24T08:41:18.133Z,22.43
2017-11-24T08:43:47.207Z,28.07
2017-11-24T08:46:22.114Z,28.57
2017-11-24T08:48:56.011Z,19.20
2017-11-24T08:51:24.317Z,22.57
2017-11-24T08:53:52.624Z,19.40
2017-11-24T08:56:21.821Z,18.73
2017-11-24T08:58:50.883Z,19.87
2017-11-24T09:01:19.292Z,19.07
2017-11-24T09:03:47.655Z,15.10
2017-11-24T09:06:22.179Z,22.90
2017-11-24T09:08:51.276Z,20.40
2017-11-24T09:11:20.352Z,18.73
2017-11-24T09:13:48.678Z,22.07
2017-11-24T09:16:16.975Z,16.00
2017-11-24T09:18:45.748Z,18.80
2017-11-24T09:21:14.036Z,19.07
2017-11-24T09:23:42.381Z,22.90
2017-11-24T09:26:11.455Z,23.20
2017-11-24T09:28:39.832Z,23.70
2017-11-24T09:31:08.197Z,21.17
2017-11-24T09:33:36.487Z,20.60
2017-11-24T09:36:06.172Z,21.73
2017-11-24T09:38:34.580Z,26.40
2017-11-24T09:41:03.672Z,24.70
2017-11-24T09:43:32.217Z,32.33
2017-11-24T09:46:00.573Z,25.20
2017-11-24T09:48:28.875Z,24.27
2017-11-24T09:50:57.204Z,29.40
2017-11-24T09:53:25.521Z,19.53
2017-11-24T09:55:53.851Z,24.03
2017-11-24T09:58:22.917Z,31.50
2017-11-24T10:00:51.188Z,14.73
2017-11-24T10:03:19.786Z,18.40
2017-11-24T10:05:48.208Z,17.90
2017-11-24T10:08:16.553Z,14.10
2017-11-24T10:10:45.625Z,15.83
2017-11-24T10:13:13.953Z,20.47
2017-11-24T10:15:42.310Z,18.87
2017-11-24T10:18:10.906Z,17.93
2017-11-24T10:20:45.031Z,23.33
2017-11-24T10:23:14.704Z,19.80
2017-11-24T10:25:44.582Z,31.90
2017-11-24T10:28:12.889Z,27.80
2017-11-24T10:30:41.992Z,21.83
2017-11-24T10:33:11.073Z,27.37
2017-11-24T10:35:40.175Z,21.90
2017-11-24T10:38:09.239Z,13.80
2017-11-24T10:40:37.573Z,21.77
2017-11-24T10:43:05.878Z,30.43
2017-11-24T10:45:34.194Z,25.70
2017-11-24T10:48:02.509Z,28.20
2017-11-24T10:50:30.839Z,21.17
2017-11-24T10:52:59.138Z,25.47
2017-11-24T10:55:28.200Z,18.00
2017-11-24T10:57:56.698Z,11.10
2017-11-24T11:00:25.784Z,13.73
2017-11-24T11:02:54.095Z,16.67
2017-11-24T11:05:22.391Z,39.83
2017-11-24T11:07:50.724Z,15.87
2017-11-24T11:10:19.017Z,17.10
2017-11-24T11:12:47.356Z,14.33
2017-11-24T11:15:15.650Z,14.27
2017-11-24T11:17:44.728Z,14.40
2017-11-24T11:20:13.045Z,19.87
2017-11-24T11:22:41.349Z,15.43
2017-11-24T11:25:11.098Z,16.83
2017-11-24T11:27:40.217Z,16.03
2017-11-24T11:30:09.326Z,15.10
2017-11-24T11:32:37.641Z,14.27
2017-11-24T11:35:05.980Z,13.80
2017-11-24T11:37:34.312Z,17.53
2017-11-24T11:40:03.429Z,21.33
2017-11-24T11:42:32.572Z,26.73
2017-11-24T11:45:00.878Z,20.00
2017-11-24T11:47:30.092Z,18.60
2017-11-24T11:49:59.177Z,16.33
2017-11-24T11:52:27.517Z,17.80
2017-11-24T11:54:55.800Z,17.03
2017-11-24T11:57:24.118Z,17.27
2017-11-24T11:59:53.195Z,36.53
2017-11-24T12:02:21.526Z,18.83
2017-11-24T12:04:49.899Z,18.50
2017-11-24T12:07:18.331Z,32.10
2017-11-24T12:09:46.652Z,12.93
2017-11-24T12:12:15.714Z,16.30
2017-11-24T12:14:44.825Z,12.90
2017-11-24T12:17:13.901Z,12.47
2017-11-24T12:19:42.247Z,16.50
2017-11-24T12:22:10.553Z,23.50
2017-11-24T12:24:39.693Z,19.13
2017-11-24T12:27:08.033Z,20.27
2017-11-24T12:29:37.111Z,14.37
2017-11-24T12:32:05.469Z,19.30
2017-11-24T12:34:33.761Z,7.77
2017-11-24T12:37:02.103Z,5.87
2017-11-24T12:39:30.409Z,7.00
2017-11-24T12:41:58.933Z,5.90
2017-11-24T12:44:27.233Z,8.47
2017-11-24T12:46:55.548Z,9.40
2017-11-24T12:49:23.871Z,5.93
2017-11-24T12:51:52.163Z,7.70
2017-11-24T12:54:20.509Z,9.40
2017-11-24T12:56:48.924Z,7.30
2017-11-24T12:59:17.316Z,7.77
2017-11-24T13:01:45.647Z,6.27
2017-11-24T13:04:13.944Z,6.60
2017-11-24T13:06:42.291Z,7.60
2017-11-24T13:09:11.397Z,7.60
2017-11-24T13:11:39.687Z,6.60
2017-11-24T13:14:08.018Z,11.00
2017-11-24T13:16:37.107Z,13.97
2017-11-24T13:19:05.420Z,13.20
2017-11-24T13:21:34.513Z,13.13
2017-11-24T13:24:03.579Z,13.87
2017-11-24T13:26:32.708Z,14.87
2017-11-24T13:29:01.088Z,9.87
2017-11-24T13:31:29.431Z,13.40
2017-11-24T13:33:57.777Z,18.03
2017-11-24T13:36:26.091Z,12.50
2017-11-24T13:38:54.710Z,16.30
2017-11-24T13:41:23.031Z,14.53
2017-11-24T13:43:51.327Z,14.30
2017-11-24T13:46:19.639Z,15.20
2017-11-24T13:48:47.966Z,16.10
2017-11-24T13:51:16.251Z,15.73
2017-11-24T13:53:44.876Z,17.20
2017-11-24T13:56:13.199Z,15.53
2017-11-24T13:58:41.532Z,15.17
2017-11-24T14:01:09.850Z,19.40
2017-11-24T14:03:38.177Z,18.03
2017-11-24T14:06:06.500Z,14.90
2017-11-24T14:08:34.816Z,18.50
2017-11-24T14:11:03.938Z,20.43
2017-11-24T14:13:32.297Z,15.07
2017-11-24T14:16:01.360Z,16.93
2017-11-24T14:18:29.677Z,23.47
2017-11-24T14:20:58.356Z,24.87
2017-11-24T14:23:27.434Z,18.57
2017-11-24T14:25:56.529Z,22.63
2017-11-24T14:28:25.604Z,17.53
2017-11-24T14:30:53.957Z,22.60
2017-11-24T14:33:22.292Z,19.20
2017-11-24T14:35:51.391Z,19.47
2017-11-24T14:38:19.700Z,19.63
2017-11-24T14:40:48.057Z,17.10
2017-11-24T14:43:16.404Z,18.73
2017-11-24T14:45:45.515Z,16.20
2017-11-24T14:48:28.844Z,14.07
2017-11-24T14:50:57.918Z,20.10
2017-11-24T14:53:27.008Z,18.70
2017-11-24T14:55:55.344Z,14.30
2017-11-24T14:58:23.708Z,14.93
2017-11-24T15:00:52.874Z,16.30
2017-11-24T15:03:21.195Z,12.73
2017-11-24T15:05:49.580Z,20.00
2017-11-24T15:08:17.980Z,13.77
2017-11-24T15:10:46.304Z,18.83
2017-11-24T15:13:15.356Z,12.97
2017-11-24T15:15:43.684Z,11.87
2017-11-24T15:18:11.981Z,15.10
2017-11-24T15:20:40.394Z,13.23
2017-11-24T15:23:08.699Z,16.30
2017-11-24T15:25:37.057Z,14.20
2017-11-24T15:28:05.440Z,12.20
2017-11-24T15:30:33.758Z,14.33
2017-11-24T15:33:02.924Z,20.67
2017-11-24T15:35:32.042Z,23.53
2017-11-24T15:38:00.569Z,16.67
2017-11-24T15:40:28.859Z,13.13
2017-11-24T15:42:57.172Z,11.80
2017-11-24T15:45:25.460Z,13.90
2017-11-24T15:47:53.811Z,21.13
2017-11-24T15:50:22.265Z,16.23
2017-11-24T15:52:50.627Z,13.97
2017-11-24T15:55:18.911Z,8.10
2017-11-24T15:57:47.224Z,11.47
2017-11-24T16:00:15.564Z,19.77
2017-11-24T16:02:43.957Z,9.47
2017-11-24T16:05:12.324Z,10.03
2017-11-24T16:07:40.667Z,9.07
2017-11-24T16:10:09.024Z,8.03
2017-11-24T16:12:37.351Z,9.70
2017-11-24T16:15:05.684Z,28.10
2017-11-24T16:17:33.999Z,18.50
2017-11-24T16:20:02.760Z,12.27
2017-11-24T16:22:31.108Z,16.33
2017-11-24T16:24:59.454Z,18.03
2017-11-24T16:27:28.549Z,17.20
2017-11-24T16:29:56.911Z,14.20
2017-11-24T16:32:25.236Z,20.10
2017-11-24T16:34:53.557Z,17.20
2017-11-24T16:37:22.177Z,16.70
2017-11-24T16:39:50.728Z,15.90
2017-11-24T16:42:19.127Z,15.57
2017-11-24T16:44:48.941Z,19.17
2017-11-24T16:47:18.052Z,16.00
2017-11-24T16:49:47.240Z,23.77
2017-11-24T16:52:16.327Z,22.87
2017-11-24T16:54:44.651Z,14.63
2017-11-24T16:57:13.006Z,19.13
2017-11-24T16:59:41.491Z,27.90
2017-11-24T17:02:09.856Z,34.00
2017-11-24T17:04:38.967Z,26.20
2017-11-24T17:07:07.283Z,27.93
2017-11-24T17:09:36.427Z,23.10
2017-11-24T17:12:04.791Z,17.37
2017-11-24T17:14:33.119Z,12.63
2017-11-24T17:17:01.457Z,14.97
2017-11-24T17:19:29.780Z,16.57
2017-11-24T17:21:58.112Z,15.40
2017-11-24T17:24:26.473Z,14.07
2017-11-24T17:26:54.836Z,12.80
2017-11-24T17:29:23.931Z,15.87
2017-11-24T17:31:52.330Z,12.90
2017-11-24T17:34:20.768Z,14.70
2017-11-24T17:36:49.089Z,12.37
2017-11-24T17:39:18.218Z,14.93
2017-11-24T17:41:46.605Z,17.83
2017-11-24T17:44:15.684Z,25.63
2017-11-24T17:46:44.401Z,21.60
2017-11-24T17:49:12.753Z,18.57
2017-11-24T17:51:41.084Z,19.30
2017-11-24T17:54:10.629Z,21.00
2017-11-24T17:56:39.044Z,19.23
2017-11-24T17:59:07.484Z,19.50
2017-11-24T18:01:35.783Z,22.23
2017-11-24T18:04:04.085Z,22.53
2017-11-24T18:06:33.813Z,25.23
2017-11-24T18:09:02.942Z,21.93
2017-11-24T18:11:32.911Z,23.13
2017-11-24T18:14:01.223Z,27.50
2017-11-24T18:16:29.552Z,29.70
2017-11-24T18:18:58.016Z,52.00
2017-11-24T18:21:26.359Z,29.97
2017-11-24T18:23:54.672Z,27.03
2017-11-24T18:26:23.033Z,26.03
2017-11-24T18:28:51.371Z,25.10
2017-11-24T18:31:19.705Z,40.10
2017-11-24T18:33:48.085Z,32.00
2017-11-24T18:36:16.397Z,22.13
2017-11-24T18:38:44.751Z,21.93
2017-11-24T18:41:13.855Z,21.23
2017-11-24T18:43:42.235Z,25.40
2017-11-24T18:46:11.329Z,26.60
2017-11-24T18:48:39.674Z,22.67
2017-11-24T18:51:08.052Z,19.93
2017-11-24T18:53:37.181Z,22.30
2017-11-24T18:56:05.507Z,24.60
2017-11-24T18:58:33.888Z,26.80
2017-11-24T19:01:02.420Z,28.30
2017-11-24T19:03:30.786Z,30.00
2017-11-24T19:05:59.923Z,22.37
2017-11-24T19:08:28.268Z,20.23
2017-11-24T19:10:57.407Z,19.43
2017-11-24T19:13:25.756Z,22.33
2017-11-24T19:15:54.857Z,20.27
2017-11-24T19:18:23.564Z,23.27
2017-11-24T19:20:51.875Z,23.90
2017-11-24T19:23:20.232Z,21.83
2017-11-24T19:25:48.574Z,22.80
2017-11-24T19:28:17.724Z,22.33
2017-11-24T19:30:46.045Z,23.93
2017-11-24T19:33:14.552Z,27.30
2017-11-24T19:35:43.003Z,26.87
2017-11-24T19:38:11.339Z,26.70
2017-11-24T19:40:39.706Z,25.33
2017-11-24T19:43:08.028Z,27.07
2017-11-24T19:45:37.257Z,23.83
2017-11-24T19:48:06.301Z,30.03
2017-11-24T19:50:35.444Z,27.00
2017-11-24T19:53:03.763Z,26.23
2017-11-24T19:55:32.862Z,31.27
2017-11-24T19:58:01.198Z,32.50
2017-11-24T20:00:29.570Z,35.80
2017-11-24T20:02:58.660Z,30.23
2017-11-24T20:05:26.988Z,34.23
2017-11-24T20:07:55.511Z,33.17
2017-11-24T20:10:23.851Z,33.87
2017-11-24T20:12:52.151Z,36.40
2017-11-24T20:15:20.475Z,35.00
2017-11-24T20:17:48.822Z,35.67
2017-11-24T20:20:17.168Z,33.50
2017-11-24T20:22:46.276Z,32.57
2017-11-24T20:25:15.449Z,36.60
2017-11-24T20:27:44.499Z,31.50
2017-11-24T20:30:12.892Z,32.47
2017-11-24T20:32:41.887Z,34.10
2017-11-24T20:35:10.252Z,32.00
2017-11-24T20:37:38.600Z,27.40
2017-11-24T20:40:06.974Z,29.80
2017-11-24T20:42:36.122Z,32.23
2017-11-24T20:45:04.558Z,33.57
2017-11-24T20:47:32.958Z,39.40
2017-11-24T20:50:01.269Z,37.60
2017-11-24T20:52:29.592Z,36.43
2017-11-24T20:54:58.687Z,30.23
2017-11-24T20:57:27.048Z,34.20
2017-11-24T20:59:56.214Z,39.07
2017-11-24T21:02:24.731Z,34.80
2017-11-24T21:04:53.862Z,31.67
2017-11-24T21:07:22.219Z,31.47
2017-11-24T21:09:50.666Z,38.40
2017-11-24T21:12:19.078Z,43.70
2017-11-24T21:14:48.886Z,38.57
2017-11-24T21:17:17.951Z,38.33
2017-11-24T21:19:47.124Z,40.60
2017-11-24T21:22:15.759Z,43.30
2017-11-24T21:24:44.100Z,45.30
2017-11-24T21:27:12.441Z,44.93
2017-11-24T21:29:40.757Z,39.67
2017-11-24T21:32:10.002Z,38.53
2017-11-24T21:34:38.386Z,40.70
2017-11-24T21:37:07.460Z,41.17
2017-11-24T21:39:35.819Z,38.07
2017-11-24T21:42:04.149Z,37.03
2017-11-24T21:44:33.320Z,38.07
2017-11-24T21:47:01.678Z,35.20
2017-11-24T21:49:30.965Z,38.90
2017-11-24T21:51:59.343Z,38.43
2017-11-24T21:54:27.630Z,41.70
2017-11-24T21:56:55.921Z,37.90
2017-11-24T21:59:25.004Z,39.03
2017-11-24T22:01:53.349Z,32.37
2017-11-24T22:04:21.660Z,36.50
2017-11-24T22:06:49.965Z,39.67
2017-11-24T22:09:18.268Z,40.10
2017-11-24T22:11:47.336Z,44.23
2017-11-24T22:14:15.696Z,41.77
2017-11-24T22:16:44.772Z,38.63
2017-11-24T22:19:13.071Z,40.33
2017-11-24T22:21:42.163Z,40.53
2017-11-24T22:24:11.220Z,38.50
2017-11-24T22:26:40.353Z,40.60
2017-11-24T22:29:09.425Z,43.50
2017-11-24T22:31:38.531Z,42.40
2017-11-24T22:34:07.591Z,42.53
2017-11-24T22:36:35.929Z,38.27
2017-11-24T22:39:04.276Z,43.77
2017-11-24T22:41:32.579Z,42.83
2017-11-24T22:44:00.927Z,40.67
2017-11-24T22:46:29.251Z,47.97
2017-11-24T22:48:57.574Z,48.23
2017-11-24T22:51:25.868Z,42.53
2017-11-24T22:53:54.954Z,41.50
2017-11-24T22:56:23.232Z,41.23
2017-11-24T22:58:51.559Z,43.03
2017-11-24T23:01:19.871Z,44.93
2017-11-24T23:03:48.972Z,39.77
2017-11-24T23:06:17.287Z,38.53
2017-11-24T23:08:45.601Z,43.17
2017-11-24T23:11:13.961Z,43.23
2017-11-24T23:13:42.298Z,40.13
2017-11-24T23:16:10.655Z,42.10
2017-11-24T23:18:38.995Z,35.77
2017-11-24T23:21:07.317Z,26.33
2017-11-24T23:23:35.677Z,25.37
2017-11-24T23:26:04.080Z,39.03
2017-11-24T23:28:32.428Z,34.03
2017-11-24T23:31:00.736Z,37.60
2017-11-24T23:33:29.831Z,38.53
2017-11-24T23:35:58.159Z,45.97
2017-11-24T23:38:26.506Z,42.20
2017-11-24T23:40:54.836Z,41.80
2017-11-24T23:43:23.967Z,39.63
2017-11-24T23:45:52.267Z,33.70
2017-11-24T23:48:20.663Z,31.83
2017-11-24T23:50:48.963Z,38.57
2017-11-24T23:53:17.274Z,39.97
2017-11-24T23:55:46.359Z,40.20
2017-11-24T23:58:15.412Z,38.30
